Terminal Aerodrome Forecast
Issued by NWS Hastings, NE

Current Version | Previous Version | Text Only | Print | Product List | Glossary On
Versions: 1 2 3 4 5 6 7 8 9 10 11 12 13 14 15 16 17 18 19 20 21 22 23 24 25 26 27 28 29 30 31 32 33 34 35 36 37 38 39 40 41 42 43
000
FTUS43 KGID 020520
TAFGRI
TAF
KGRI 020520Z 0206/0306 03007KT P6SM VCTS SCT030CB BKN100
      TEMPO 0207/0208 3SM -TSRA BR SCT015CB BKN030
     FM020800 02012KT 3SM -TSRA BR SCT015CB BKN030
     FM021000 35012G16KT 5SM -RA BR SCT015 BKN030
     FM021400 34018G26KT P6SM VCSH SCT025 BKN050
     FM022000 32012KT P6SM SCT050=

USA.gov is the U.S. government's official web portal to all federal, state and local government web resources and services.